Tk Rotterdam — A8RG8 — position and weather

sailwx.info

Track history (hours):
 
Tides and Currents Weather Stations Pressure Air Temp Water Temp Dewpoint Dewpoint Depression Visibility Wind Speed Wind Dir Waves Ship Positions

Tk Rotterdam

Last reported at 2016-Apr-22 14:30 UTC. Time now 2016-Apr-30 18:51 UTC.
Position N 40°59' E 028°60'.
Warning: this ship's position is 8 days out of date.

Length 130 m; draft 5.5 m.

Type: Cargo ship. MMSI: 636014098.

Date/timePositionNaut miles runAvg speedWind from/ knotsBaromVisibWave heightAir tempDewpointWater temp
2016-Apr-22 14:30N 40°59' E 028°60'6 6.4
2016-Apr-22 13:30N 40°54' E 028°56'6 6.1
2016-Apr-22 12:28N 40°50' E 028°50'2 2.6
2016-Apr-22 11:31N 40°48' E 028°47'1 0.9
2016-Apr-22 10:15N 40°48' E 028°49'1 0.5
2016-Apr-22 08:27N 40°47' E 028°50'212 5.5
2016-Apr-20 18:10N 37°45' E 026°31'44 8.9
2016-Apr-20 13:14N 37°08' E 027°00'7 9.7
2016-Apr-20 12:33N 37°02' E 027°04'28 7.1
2016-Apr-20 08:33N 36°39' E 027°23'10 9.8
2016-Apr-20 07:33N 36°35' E 027°35'12 9.7
2016-Apr-20 06:16N 36°30' E 027°49'131 9.3
2016-Apr-19 16:09N 36°02' E 030°28'6 9.1
2016-Apr-19 15:27N 36°01' E 030°36'  
Track history (hours):
 
Tides and Currents Weather Stations Pressure Air Temp Water Temp Dewpoint Dewpoint Depression Visibility Wind Speed Wind Dir Waves Ship Positions

Tk Rotterdam

Last reported at 2016-Apr-22 14:30 UTC. Time now 2016-Apr-30 18:51 UTC.
Position N 40°59' E 028°60'.
Warning: this ship's position is 8 days out of date.

Length 130 m; draft 5.5 m.

Type: Cargo ship. MMSI: 636014098.

Date/timePositionNaut miles runAvg speedWind from/ knotsBaromVisibWave heightAir tempDewpointWater temp
2016-Apr-22 14:30N 40°59' E 028°60'6 6.4
2016-Apr-22 13:30N 40°54' E 028°56'6 6.1
2016-Apr-22 12:28N 40°50' E 028°50'2 2.6
2016-Apr-22 11:31N 40°48' E 028°47'1 0.9
2016-Apr-22 10:15N 40°48' E 028°49'1 0.5
2016-Apr-22 08:27N 40°47' E 028°50'212 5.5
2016-Apr-20 18:10N 37°45' E 026°31'44 8.9
2016-Apr-20 13:14N 37°08' E 027°00'7 9.7
2016-Apr-20 12:33N 37°02' E 027°04'28 7.1
2016-Apr-20 08:33N 36°39' E 027°23'10 9.8
2016-Apr-20 07:33N 36°35' E 027°35'12 9.7
2016-Apr-20 06:16N 36°30' E 027°49'131 9.3
2016-Apr-19 16:09N 36°02' E 030°28'6 9.1
2016-Apr-19 15:27N 36°01' E 030°36'  

Dump ship's entire track history